sensor_id;sensor_type;location;lat;lon;timestamp;temperature;humidity
45491;DHT22;31237;45.586;13.782;2022-12-07T00:03:34;6.80;99.90
45491;DHT22;31237;45.586;13.782;2022-12-07T00:06:01;6.80;99.90
45491;DHT22;31237;45.586;13.782;2022-12-07T00:08:27;6.80;99.90
45491;DHT22;31237;45.586;13.782;2022-12-07T00:10:52;6.70;99.90
45491;DHT22;31237;45.586;13.782;2022-12-07T00:13:18;6.80;99.90
45491;DHT22;31237;45.586;13.782;2022-12-07T00:15:44;6.80;99.90
45491;DHT22;31237;45.586;13.782;2022-12-07T00:18:10;6.80;99.90
45491;DHT22;31237;45.586;13.782;2022-12-07T00:20:36;6.80;99.90
45491;DHT22;31237;45.586;13.782;2022-12-07T00:23:02;6.80;99.90
45491;DHT22;31237;45.586;13.782;2022-12-07T00:25:27;6.80;99.90
45491;DHT22;31237;45.586;13.782;2022-12-07T00:27:53;6.70;99.90
45491;DHT22;31237;45.586;13.782;2022-12-07T00:30:22;6.70;99.90
45491;DHT22;31237;45.586;13.782;2022-12-07T00:32:48;6.70;99.90
45491;DHT22;31237;45.586;13.782;2022-12-07T00:35:13;6.70;99.90
45491;DHT22;31237;45.586;13.782;2022-12-07T00:37:39;6.70;99.90
45491;DHT22;31237;45.586;13.782;2022-12-07T00:40:06;6.70;99.90
45491;DHT22;31237;45.586;13.782;2022-12-07T00:42:31;6.70;99.90
45491;DHT22;31237;45.586;13.782;2022-12-07T00:44:57;6.70;99.90
45491;DHT22;31237;45.586;13.782;2022-12-07T00:47:23;6.70;99.90
45491;DHT22;31237;45.586;13.782;2022-12-07T00:49:48;6.60;99.90
45491;DHT22;31237;45.586;13.782;2022-12-07T00:52:14;6.60;99.90
45491;DHT22;31237;45.586;13.782;2022-12-07T00:54:40;6.60;99.90
45491;DHT22;31237;45.586;13.782;2022-12-07T00:57:06;6.60;99.90
45491;DHT22;31237;45.586;13.782;2022-12-07T00:59:32;6.60;99.90
45491;DHT22;31237;45.586;13.782;2022-12-07T01:01:57;6.60;99.90
45491;DHT22;31237;45.586;13.782;2022-12-07T01:04:23;6.60;99.90
45491;DHT22;31237;45.586;13.782;2022-12-07T01:06:49;6.60;99.90
45491;DHT22;31237;45.586;13.782;2022-12-07T01:09:14;6.60;99.90
45491;DHT22;31237;45.586;13.782;2022-12-07T01:11:40;6.60;99.90
45491;DHT22;31237;45.586;13.782;2022-12-07T01:14:06;6.50;99.90
45491;DHT22;31237;45.586;13.782;2022-12-07T01:16:32;6.50;99.90
45491;DHT22;31237;45.586;13.782;2022-12-07T01:18:59;6.50;99.90
45491;DHT22;31237;45.586;13.782;2022-12-07T01:21:31;6.50;99.90
45491;DHT22;31237;45.586;13.782;2022-12-07T01:24:00;6.50;99.90
45491;DHT22;31237;45.586;13.782;2022-12-07T01:26:26;6.50;99.90
45491;DHT22;31237;45.586;13.782;2022-12-07T01:28:53;6.50;99.90
45491;DHT22;31237;45.586;13.782;2022-12-07T01:31:22;6.50;99.90
45491;DHT22;31237;45.586;13.782;2022-12-07T01:33:52;6.50;99.90
45491;DHT22;31237;45.586;13.782;2022-12-07T01:36:29;6.60;99.90
45491;DHT22;31237;45.586;13.782;2022-12-07T01:38:58;6.60;99.90
45491;DHT22;31237;45.586;13.782;2022-12-07T01:41:26;6.60;99.90
45491;DHT22;31237;45.586;13.782;2022-12-07T01:44:18;6.60;99.90
45491;DHT22;31237;45.586;13.782;2022-12-07T01:46:59;6.60;99.90
45491;DHT22;31237;45.586;13.782;2022-12-07T01:49:35;6.60;99.90
45491;DHT22;31237;45.586;13.782;2022-12-07T01:52:24;6.70;99.90
45491;DHT22;31237;45.586;13.782;2022-12-07T01:54:54;6.70;99.90
45491;DHT22;31237;45.586;13.782;2022-12-07T01:57:23;6.60;99.90
45491;DHT22;31237;45.586;13.782;2022-12-07T01:59:51;6.70;99.90
45491;DHT22;31237;45.586;13.782;2022-12-07T02:02:24;6.70;99.90
45491;DHT22;31237;45.586;13.782;2022-12-07T02:04:53;6.70;99.90
45491;DHT22;31237;45.586;13.782;2022-12-07T02:07:20;6.80;99.90
45491;DHT22;31237;45.586;13.782;2022-12-07T02:09:48;6.80;99.90
45491;DHT22;31237;45.586;13.782;2022-12-07T02:12:13;6.80;99.90
45491;DHT22;31237;45.586;13.782;2022-12-07T02:14:39;6.80;99.90
45491;DHT22;31237;45.586;13.782;2022-12-07T02:31:12;6.90;99.90
45491;DHT22;31237;45.586;13.782;2022-12-07T02:33:49;6.90;99.90
45491;DHT22;31237;45.586;13.782;2022-12-07T02:36:28;7.00;99.90
45491;DHT22;31237;45.586;13.782;2022-12-07T02:39:43;7.00;99.90
45491;DHT22;31237;45.586;13.782;2022-12-07T02:41:54;7.00;99.90
45491;DHT22;31237;45.586;13.782;2022-12-07T02:44:24;7.10;99.90
45491;DHT22;31237;45.586;13.782;2022-12-07T02:47:06;7.00;99.90
45491;DHT22;31237;45.586;13.782;2022-12-07T02:49:33;7.10;99.90
45491;DHT22;31237;45.586;13.782;2022-12-07T02:52:00;7.10;99.90
45491;DHT22;31237;45.586;13.782;2022-12-07T02:54:26;7.10;99.90
45491;DHT22;31237;45.586;13.782;2022-12-07T02:56:53;7.10;99.90
45491;DHT22;31237;45.586;13.782;2022-12-07T03:02:46;7.00;99.80
45491;DHT22;31237;45.586;13.782;2022-12-07T03:11:02;6.90;99.80
45491;DHT22;31237;45.586;13.782;2022-12-07T03:14:09;6.90;99.80
45491;DHT22;31237;45.586;13.782;2022-12-07T03:16:45;6.90;99.80
45491;DHT22;31237;45.586;13.782;2022-12-07T03:19:18;6.90;99.70
45491;DHT22;31237;45.586;13.782;2022-12-07T03:21:50;6.80;99.70
45491;DHT22;31237;45.586;13.782;2022-12-07T03:24:21;6.80;99.70
45491;DHT22;31237;45.586;13.782;2022-12-07T03:26:52;6.80;99.70
45491;DHT22;31237;45.586;13.782;2022-12-07T03:29:34;6.80;99.70
45491;DHT22;31237;45.586;13.782;2022-12-07T03:32:06;6.80;99.80
45491;DHT22;31237;45.586;13.782;2022-12-07T03:34:41;6.80;99.80
45491;DHT22;31237;45.586;13.782;2022-12-07T03:37:15;6.80;99.80
45491;DHT22;31237;45.586;13.782;2022-12-07T03:40:02;6.80;99.70
45491;DHT22;31237;45.586;13.782;2022-12-07T03:42:30;6.70;99.70
45491;DHT22;31237;45.586;13.782;2022-12-07T03:44:57;6.70;99.90
45491;DHT22;31237;45.586;13.782;2022-12-07T03:50:14;6.80;99.90
45491;DHT22;31237;45.586;13.782;2022-12-07T03:52:47;6.80;99.90
45491;DHT22;31237;45.586;13.782;2022-12-07T03:55:26;6.90;99.90
45491;DHT22;31237;45.586;13.782;2022-12-07T03:57:56;6.90;99.90
45491;DHT22;31237;45.586;13.782;2022-12-07T04:00:23;6.90;99.90
45491;DHT22;31237;45.586;13.782;2022-12-07T04:02:52;6.90;99.80
45491;DHT22;31237;45.586;13.782;2022-12-07T04:05:18;6.90;99.80
45491;DHT22;31237;45.586;13.782;2022-12-07T04:07:44;6.90;99.70
45491;DHT22;31237;45.586;13.782;2022-12-07T04:10:10;6.90;99.70
45491;DHT22;31237;45.586;13.782;2022-12-07T04:12:36;7.00;99.80
45491;DHT22;31237;45.586;13.782;2022-12-07T04:15:03;7.00;99.70
45491;DHT22;31237;45.586;13.782;2022-12-07T04:17:29;7.00;99.70
45491;DHT22;31237;45.586;13.782;2022-12-07T04:19:54;7.00;99.60
45491;DHT22;31237;45.586;13.782;2022-12-07T04:22:20;7.10;99.60
45491;DHT22;31237;45.586;13.782;2022-12-07T04:24:46;7.10;99.60
45491;DHT22;31237;45.586;13.782;2022-12-07T04:27:12;7.10;99.60
45491;DHT22;31237;45.586;13.782;2022-12-07T04:29:37;7.10;99.50
45491;DHT22;31237;45.586;13.782;2022-12-07T04:32:03;7.10;99.50
45491;DHT22;31237;45.586;13.782;2022-12-07T04:34:29;7.10;99.40
45491;DHT22;31237;45.586;13.782;2022-12-07T04:36:55;7.10;99.40
45491;DHT22;31237;45.586;13.782;2022-12-07T04:39:23;7.10;99.40
45491;DHT22;31237;45.586;13.782;2022-12-07T04:41:49;7.20;99.40
45491;DHT22;31237;45.586;13.782;2022-12-07T04:44:16;7.10;99.30
45491;DHT22;31237;45.586;13.782;2022-12-07T04:46:42;7.20;99.40
45491;DHT22;31237;45.586;13.782;2022-12-07T04:49:09;7.20;99.40
45491;DHT22;31237;45.586;13.782;2022-12-07T04:51:35;7.20;99.30
45491;DHT22;31237;45.586;13.782;2022-12-07T04:54:00;7.20;99.30
45491;DHT22;31237;45.586;13.782;2022-12-07T04:56:26;7.20;99.30
45491;DHT22;31237;45.586;13.782;2022-12-07T04:58:53;7.20;99.30
45491;DHT22;31237;45.586;13.782;2022-12-07T05:01:20;7.20;99.30
45491;DHT22;31237;45.586;13.782;2022-12-07T05:03:46;7.20;99.30
45491;DHT22;31237;45.586;13.782;2022-12-07T05:06:12;7.20;99.30
45491;DHT22;31237;45.586;13.782;2022-12-07T05:08:38;7.20;99.30
45491;DHT22;31237;45.586;13.782;2022-12-07T05:11:05;7.20;99.20
45491;DHT22;31237;45.586;13.782;2022-12-07T05:13:32;7.10;99.10
45491;DHT22;31237;45.586;13.782;2022-12-07T05:15:57;7.10;99.20
45491;DHT22;31237;45.586;13.782;2022-12-07T05:18:24;7.20;99.20
45491;DHT22;31237;45.586;13.782;2022-12-07T05:20:50;7.20;99.20
45491;DHT22;31237;45.586;13.782;2022-12-07T05:23:17;7.20;99.20
45491;DHT22;31237;45.586;13.782;2022-12-07T05:25:43;7.10;99.20
45491;DHT22;31237;45.586;13.782;2022-12-07T05:28:09;7.10;99.20
45491;DHT22;31237;45.586;13.782;2022-12-07T05:30:35;7.20;99.30
45491;DHT22;31237;45.586;13.782;2022-12-07T05:33:00;7.20;99.20
45491;DHT22;31237;45.586;13.782;2022-12-07T05:35:26;7.20;99.20
45491;DHT22;31237;45.586;13.782;2022-12-07T05:37:52;7.20;99.20
45491;DHT22;31237;45.586;13.782;2022-12-07T05:40:18;7.20;99.10
45491;DHT22;31237;45.586;13.782;2022-12-07T05:42:44;7.20;99.10
45491;DHT22;31237;45.586;13.782;2022-12-07T05:45:10;7.20;99.00
45491;DHT22;31237;45.586;13.782;2022-12-07T05:47:36;7.20;99.10
45491;DHT22;31237;45.586;13.782;2022-12-07T05:50:03;7.20;99.10
45491;DHT22;31237;45.586;13.782;2022-12-07T05:52:29;7.20;99.00
45491;DHT22;31237;45.586;13.782;2022-12-07T05:54:55;7.20;98.90
45491;DHT22;31237;45.586;13.782;2022-12-07T05:57:21;7.10;98.80
45491;DHT22;31237;45.586;13.782;2022-12-07T05:59:47;7.10;98.80
45491;DHT22;31237;45.586;13.782;2022-12-07T06:02:14;7.10;98.80
45491;DHT22;31237;45.586;13.782;2022-12-07T06:04:42;7.10;98.90
45491;DHT22;31237;45.586;13.782;2022-12-07T06:07:09;7.10;98.90
45491;DHT22;31237;45.586;13.782;2022-12-07T06:09:36;7.10;98.90
45491;DHT22;31237;45.586;13.782;2022-12-07T06:12:03;7.10;98.80
45491;DHT22;31237;45.586;13.782;2022-12-07T06:14:47;7.10;98.90
45491;DHT22;31237;45.586;13.782;2022-12-07T06:17:13;7.10;98.90
45491;DHT22;31237;45.586;13.782;2022-12-07T06:19:39;7.10;98.90
45491;DHT22;31237;45.586;13.782;2022-12-07T06:22:05;7.10;98.90
45491;DHT22;31237;45.586;13.782;2022-12-07T06:24:32;7.10;98.80
45491;DHT22;31237;45.586;13.782;2022-12-07T06:26:58;7.10;98.80
45491;DHT22;31237;45.586;13.782;2022-12-07T06:29:24;7.10;98.70
45491;DHT22;31237;45.586;13.782;2022-12-07T06:31:50;7.10;98.80
45491;DHT22;31237;45.586;13.782;2022-12-07T06:34:20;7.10;98.70
45491;DHT22;31237;45.586;13.782;2022-12-07T06:36:47;7.20;98.70
45491;DHT22;31237;45.586;13.782;2022-12-07T06:39:17;7.10;98.60
45491;DHT22;31237;45.586;13.782;2022-12-07T06:41:43;7.20;98.60
45491;DHT22;31237;45.586;13.782;2022-12-07T06:44:09;7.10;98.50
45491;DHT22;31237;45.586;13.782;2022-12-07T06:46:35;7.10;98.50
45491;DHT22;31237;45.586;13.782;2022-12-07T06:49:01;7.10;98.50
45491;DHT22;31237;45.586;13.782;2022-12-07T06:51:27;7.20;98.50
45491;DHT22;31237;45.586;13.782;2022-12-07T06:53:53;7.10;98.50
45491;DHT22;31237;45.586;13.782;2022-12-07T06:56:18;7.20;98.50
45491;DHT22;31237;45.586;13.782;2022-12-07T06:58:44;7.20;98.40
45491;DHT22;31237;45.586;13.782;2022-12-07T07:01:12;7.20;98.40
45491;DHT22;31237;45.586;13.782;2022-12-07T07:03:39;7.20;98.40
45491;DHT22;31237;45.586;13.782;2022-12-07T07:06:06;7.20;98.30
45491;DHT22;31237;45.586;13.782;2022-12-07T07:08:33;7.20;98.30
45491;DHT22;31237;45.586;13.782;2022-12-07T07:10:59;7.20;98.30
45491;DHT22;31237;45.586;13.782;2022-12-07T07:13:25;7.30;98.30
45491;DHT22;31237;45.586;13.782;2022-12-07T07:15:50;7.30;98.20
45491;DHT22;31237;45.586;13.782;2022-12-07T07:18:16;7.30;98.20
45491;DHT22;31237;45.586;13.782;2022-12-07T07:20:42;7.30;98.20
45491;DHT22;31237;45.586;13.782;2022-12-07T07:23:07;7.30;98.20
45491;DHT22;31237;45.586;13.782;2022-12-07T07:25:33;7.30;98.20
45491;DHT22;31237;45.586;13.782;2022-12-07T07:27:59;7.40;98.20
45491;DHT22;31237;45.586;13.782;2022-12-07T07:30:25;7.40;98.20
45491;DHT22;31237;45.586;13.782;2022-12-07T07:32:51;7.50;98.20
45491;DHT22;31237;45.586;13.782;2022-12-07T07:35:21;7.50;98.10
45491;DHT22;31237;45.586;13.782;2022-12-07T07:37:46;7.50;98.00
45491;DHT22;31237;45.586;13.782;2022-12-07T07:40:12;7.50;97.90
45491;DHT22;31237;45.586;13.782;2022-12-07T07:42:38;7.50;97.90
45491;DHT22;31237;45.586;13.782;2022-12-07T07:45:04;7.50;97.80
45491;DHT22;31237;45.586;13.782;2022-12-07T07:47:30;7.60;97.70
45491;DHT22;31237;45.586;13.782;2022-12-07T07:49:55;7.50;97.60
45491;DHT22;31237;45.586;13.782;2022-12-07T07:52:21;7.50;97.70
45491;DHT22;31237;45.586;13.782;2022-12-07T07:54:47;7.50;97.60
45491;DHT22;31237;45.586;13.782;2022-12-07T07:57:13;7.50;97.60
45491;DHT22;31237;45.586;13.782;2022-12-07T07:59:38;7.50;97.60
45491;DHT22;31237;45.586;13.782;2022-12-07T08:02:04;7.50;97.60
45491;DHT22;31237;45.586;13.782;2022-12-07T08:04:30;7.50;97.60
45491;DHT22;31237;45.586;13.782;2022-12-07T08:06:56;7.50;97.60
45491;DHT22;31237;45.586;13.782;2022-12-07T08:09:22;7.50;97.60
45491;DHT22;31237;45.586;13.782;2022-12-07T08:11:48;7.50;97.60
45491;DHT22;31237;45.586;13.782;2022-12-07T08:14:13;7.60;97.60
45491;DHT22;31237;45.586;13.782;2022-12-07T08:16:39;7.60;97.60
45491;DHT22;31237;45.586;13.782;2022-12-07T08:19:06;7.60;97.60
45491;DHT22;31237;45.586;13.782;2022-12-07T08:21:32;7.60;97.60
45491;DHT22;31237;45.586;13.782;2022-12-07T08:23:57;7.60;97.60
45491;DHT22;31237;45.586;13.782;2022-12-07T08:26:23;7.70;97.70
45491;DHT22;31237;45.586;13.782;2022-12-07T08:28:49;7.70;97.70
45491;DHT22;31237;45.586;13.782;2022-12-07T08:31:17;7.80;97.70
45491;DHT22;31237;45.586;13.782;2022-12-07T08:33:45;7.80;97.70
45491;DHT22;31237;45.586;13.782;2022-12-07T08:36:12;7.90;97.70
45491;DHT22;31237;45.586;13.782;2022-12-07T08:38:39;7.90;97.70
45491;DHT22;31237;45.586;13.782;2022-12-07T08:41:05;7.90;97.60
45491;DHT22;31237;45.586;13.782;2022-12-07T08:43:31;8.00;97.60
45491;DHT22;31237;45.586;13.782;2022-12-07T08:46:18;8.00;97.60
45491;DHT22;31237;45.586;13.782;2022-12-07T08:48:57;8.10;97.60
45491;DHT22;31237;45.586;13.782;2022-12-07T08:51:28;8.20;97.60
45491;DHT22;31237;45.586;13.782;2022-12-07T08:53:55;8.20;97.60
45491;DHT22;31237;45.586;13.782;2022-12-07T08:56:22;8.30;97.60
45491;DHT22;31237;45.586;13.782;2022-12-07T08:58:49;8.40;97.50
45491;DHT22;31237;45.586;13.782;2022-12-07T09:01:15;8.40;97.50
45491;DHT22;31237;45.586;13.782;2022-12-07T09:03:40;8.50;97.40
45491;DHT22;31237;45.586;13.782;2022-12-07T09:06:07;8.50;97.30
45491;DHT22;31237;45.586;13.782;2022-12-07T09:08:42;8.60;97.20
45491;DHT22;31237;45.586;13.782;2022-12-07T09:11:09;8.60;97.10
45491;DHT22;31237;45.586;13.782;2022-12-07T09:13:35;8.60;97.10
45491;DHT22;31237;45.586;13.782;2022-12-07T09:16:00;8.70;97.10
45491;DHT22;31237;45.586;13.782;2022-12-07T09:18:26;8.80;97.00
45491;DHT22;31237;45.586;13.782;2022-12-07T09:20:52;8.80;96.90
45491;DHT22;31237;45.586;13.782;2022-12-07T09:23:18;8.80;96.80
45491;DHT22;31237;45.586;13.782;2022-12-07T09:25:43;8.80;97.10
45491;DHT22;31237;45.586;13.782;2022-12-07T09:28:09;8.90;96.80
45491;DHT22;31237;45.586;13.782;2022-12-07T09:30:35;9.00;96.70
45491;DHT22;31237;45.586;13.782;2022-12-07T09:33:01;9.00;96.60
45491;DHT22;31237;45.586;13.782;2022-12-07T09:35:26;9.00;96.60
45491;DHT22;31237;45.586;13.782;2022-12-07T09:37:52;9.10;96.50
45491;DHT22;31237;45.586;13.782;2022-12-07T09:40:20;9.10;96.50
45491;DHT22;31237;45.586;13.782;2022-12-07T09:42:49;9.20;96.50
45491;DHT22;31237;45.586;13.782;2022-12-07T09:45:31;9.20;96.40
45491;DHT22;31237;45.586;13.782;2022-12-07T09:47:58;9.20;96.20
45491;DHT22;31237;45.586;13.782;2022-12-07T09:50:27;9.30;96.40
45491;DHT22;31237;45.586;13.782;2022-12-07T09:52:55;9.30;96.30
45491;DHT22;31237;45.586;13.782;2022-12-07T09:55:28;9.30;96.10
45491;DHT22;31237;45.586;13.782;2022-12-07T09:57:55;9.30;96.20
45491;DHT22;31237;45.586;13.782;2022-12-07T10:00:24;9.30;96.00
45491;DHT22;31237;45.586;13.782;2022-12-07T10:02:56;9.30;96.10
45491;DHT22;31237;45.586;13.782;2022-12-07T10:07:54;9.40;95.90
45491;DHT22;31237;45.586;13.782;2022-12-07T10:10:32;9.40;95.90
45491;DHT22;31237;45.586;13.782;2022-12-07T10:13:06;9.40;95.80
45491;DHT22;31237;45.586;13.782;2022-12-07T10:15:49;9.40;95.60
45491;DHT22;31237;45.586;13.782;2022-12-07T10:23:33;9.50;95.50
45491;DHT22;31237;45.586;13.782;2022-12-07T10:25:59;9.60;95.40
45491;DHT22;31237;45.586;13.782;2022-12-07T10:28:34;9.70;95.40
45491;DHT22;31237;45.586;13.782;2022-12-07T10:31:03;9.70;95.30
45491;DHT22;31237;45.586;13.782;2022-12-07T10:34:00;9.80;95.30
45491;DHT22;31237;45.586;13.782;2022-12-07T10:38:59;9.90;95.10
45491;DHT22;31237;45.586;13.782;2022-12-07T10:41:25;9.90;94.90
45491;DHT22;31237;45.586;13.782;2022-12-07T10:43:56;9.90;94.90
45491;DHT22;31237;45.586;13.782;2022-12-07T10:55:22;10.00;94.40
45491;DHT22;31237;45.586;13.782;2022-12-07T11:00:43;10.00;93.90
45491;DHT22;31237;45.586;13.782;2022-12-07T11:06:16;10.00;93.00
45491;DHT22;31237;45.586;13.782;2022-12-07T11:08:56;10.00;92.80
45491;DHT22;31237;45.586;13.782;2022-12-07T11:11:38;9.90;92.50
45491;DHT22;31237;45.586;13.782;2022-12-07T11:21:56;9.80;91.50
45491;DHT22;31237;45.586;13.782;2022-12-07T11:24:50;9.80;91.70
45491;DHT22;31237;45.586;13.782;2022-12-07T11:30:19;9.80;91.70
45491;DHT22;31237;45.586;13.782;2022-12-07T11:35:45;9.70;91.70
45491;DHT22;31237;45.586;13.782;2022-12-07T11:38:23;9.70;91.80
45491;DHT22;31237;45.586;13.782;2022-12-07T11:40:53;9.70;91.70
45491;DHT22;31237;45.586;13.782;2022-12-07T11:43:28;9.70;91.70
45491;DHT22;31237;45.586;13.782;2022-12-07T11:46:08;9.70;91.70
45491;DHT22;31237;45.586;13.782;2022-12-07T11:48:57;9.70;91.70
45491;DHT22;31237;45.586;13.782;2022-12-07T11:51:25;9.70;91.70
45491;DHT22;31237;45.586;13.782;2022-12-07T11:53:56;9.70;91.70
45491;DHT22;31237;45.586;13.782;2022-12-07T11:56:26;9.60;91.70
45491;DHT22;31237;45.586;13.782;2022-12-07T12:01:55;9.60;91.70
45491;DHT22;31237;45.586;13.782;2022-12-07T12:04:32;9.60;91.70
45491;DHT22;31237;45.586;13.782;2022-12-07T12:06:59;9.60;91.60
45491;DHT22;31237;45.586;13.782;2022-12-07T12:26:02;9.50;91.60
45491;DHT22;31237;45.586;13.782;2022-12-07T12:31:16;9.40;91.70
45491;DHT22;31237;45.586;13.782;2022-12-07T12:33:47;9.40;91.70
45491;DHT22;31237;45.586;13.782;2022-12-07T12:36:18;9.40;91.80
45491;DHT22;31237;45.586;13.782;2022-12-07T12:46:55;9.40;91.70
45491;DHT22;31237;45.586;13.782;2022-12-07T12:52:02;9.30;91.60
45491;DHT22;31237;45.586;13.782;2022-12-07T12:54:37;9.30;91.70
45491;DHT22;31237;45.586;13.782;2022-12-07T12:57:27;9.30;91.70
45491;DHT22;31237;45.586;13.782;2022-12-07T12:59:58;9.30;91.80
45491;DHT22;31237;45.586;13.782;2022-12-07T13:02:33;9.20;91.80
45491;DHT22;31237;45.586;13.782;2022-12-07T13:20:52;9.10;91.80
45491;DHT22;31237;45.586;13.782;2022-12-07T13:23:39;9.10;91.80
45491;DHT22;31237;45.586;13.782;2022-12-07T13:31:54;9.20;91.80
45491;DHT22;31237;45.586;13.782;2022-12-07T13:34:40;9.30;91.70
45491;DHT22;31237;45.586;13.782;2022-12-07T13:37:23;9.40;91.60
45491;DHT22;31237;45.586;13.782;2022-12-07T13:39:50;9.50;91.40
45491;DHT22;31237;45.586;13.782;2022-12-07T13:42:33;9.50;91.40
45491;DHT22;31237;45.586;13.782;2022-12-07T13:45:13;9.60;91.30
45491;DHT22;31237;45.586;13.782;2022-12-07T13:47:48;9.60;91.10
45491;DHT22;31237;45.586;13.782;2022-12-07T13:50:29;9.70;90.90
45491;DHT22;31237;45.586;13.782;2022-12-07T13:52:57;9.70;90.70
45491;DHT22;31237;45.586;13.782;2022-12-07T13:55:23;9.70;90.60
45491;DHT22;31237;45.586;13.782;2022-12-07T13:57:51;9.70;90.50
45491;DHT22;31237;45.586;13.782;2022-12-07T14:00:23;9.60;90.50
45491;DHT22;31237;45.586;13.782;2022-12-07T14:03:25;9.60;90.40
45491;DHT22;31237;45.586;13.782;2022-12-07T14:06:13;9.50;90.40
45491;DHT22;31237;45.586;13.782;2022-12-07T14:08:40;9.40;90.50
45491;DHT22;31237;45.586;13.782;2022-12-07T14:11:06;9.30;90.50
45491;DHT22;31237;45.586;13.782;2022-12-07T14:14:10;9.20;90.50
45491;DHT22;31237;45.586;13.782;2022-12-07T14:16:34;9.20;90.60
45491;DHT22;31237;45.586;13.782;2022-12-07T14:19:03;9.10;90.90
45491;DHT22;31237;45.586;13.782;2022-12-07T14:21:31;9.00;90.90
45491;DHT22;31237;45.586;13.782;2022-12-07T14:24:19;9.00;90.90
45491;DHT22;31237;45.586;13.782;2022-12-07T14:26:48;8.90;90.90
45491;DHT22;31237;45.586;13.782;2022-12-07T14:29:31;8.80;91.00
45491;DHT22;31237;45.586;13.782;2022-12-07T14:34:39;8.70;91.20
45491;DHT22;31237;45.586;13.782;2022-12-07T14:37:09;8.60;91.20
45491;DHT22;31237;45.586;13.782;2022-12-07T14:39:34;8.60;91.30
45491;DHT22;31237;45.586;13.782;2022-12-07T14:42:00;8.50;91.30
45491;DHT22;31237;45.586;13.782;2022-12-07T14:44:26;8.50;91.40
45491;DHT22;31237;45.586;13.782;2022-12-07T14:46:51;8.40;91.50
45491;DHT22;31237;45.586;13.782;2022-12-07T14:49:18;8.40;91.50
45491;DHT22;31237;45.586;13.782;2022-12-07T14:51:45;8.30;91.50
45491;DHT22;31237;45.586;13.782;2022-12-07T14:54:22;8.30;91.50
45491;DHT22;31237;45.586;13.782;2022-12-07T14:56:54;8.30;91.60
45491;DHT22;31237;45.586;13.782;2022-12-07T14:59:20;8.20;91.60
45491;DHT22;31237;45.586;13.782;2022-12-07T15:01:46;8.20;91.60
45491;DHT22;31237;45.586;13.782;2022-12-07T15:04:12;8.10;91.60
45491;DHT22;31237;45.586;13.782;2022-12-07T15:06:38;8.00;91.60
45491;DHT22;31237;45.586;13.782;2022-12-07T15:09:06;7.90;91.70
45491;DHT22;31237;45.586;13.782;2022-12-07T15:11:32;7.90;91.80
45491;DHT22;31237;45.586;13.782;2022-12-07T15:13:57;7.80;91.80
45491;DHT22;31237;45.586;13.782;2022-12-07T15:16:38;7.70;91.90
45491;DHT22;31237;45.586;13.782;2022-12-07T15:19:22;7.70;92.00
45491;DHT22;31237;45.586;13.782;2022-12-07T15:21:51;7.60;92.00
45491;DHT22;31237;45.586;13.782;2022-12-07T15:24:17;7.60;92.10
45491;DHT22;31237;45.586;13.782;2022-12-07T15:26:43;7.60;92.20
45491;DHT22;31237;45.586;13.782;2022-12-07T15:29:09;7.50;92.20
45491;DHT22;31237;45.586;13.782;2022-12-07T15:31:35;7.50;92.30
45491;DHT22;31237;45.586;13.782;2022-12-07T15:34:02;7.40;92.30
45491;DHT22;31237;45.586;13.782;2022-12-07T15:36:30;7.40;92.30
45491;DHT22;31237;45.586;13.782;2022-12-07T15:38:56;7.40;92.30
45491;DHT22;31237;45.586;13.782;2022-12-07T15:41:23;7.40;92.40
45491;DHT22;31237;45.586;13.782;2022-12-07T15:43:49;7.30;92.30
45491;DHT22;31237;45.586;13.782;2022-12-07T15:46:36;7.30;92.40
45491;DHT22;31237;45.586;13.782;2022-12-07T15:49:03;7.20;92.40
45491;DHT22;31237;45.586;13.782;2022-12-07T15:51:29;7.20;92.50
45491;DHT22;31237;45.586;13.782;2022-12-07T15:53:57;7.20;92.50
45491;DHT22;31237;45.586;13.782;2022-12-07T15:56:23;7.10;92.50
45491;DHT22;31237;45.586;13.782;2022-12-07T15:58:49;7.10;92.50
45491;DHT22;31237;45.586;13.782;2022-12-07T16:01:16;7.10;92.50
45491;DHT22;31237;45.586;13.782;2022-12-07T16:03:42;7.00;92.50
45491;DHT22;31237;45.586;13.782;2022-12-07T16:06:08;7.00;92.60
45491;DHT22;31237;45.586;13.782;2022-12-07T16:08:34;6.90;92.60
45491;DHT22;31237;45.586;13.782;2022-12-07T16:11:04;6.90;92.70
45491;DHT22;31237;45.586;13.782;2022-12-07T16:13:29;6.90;92.80
45491;DHT22;31237;45.586;13.782;2022-12-07T16:15:55;6.90;93.10
45491;DHT22;31237;45.586;13.782;2022-12-07T16:18:21;6.90;92.80
45491;DHT22;31237;45.586;13.782;2022-12-07T16:20:50;6.80;92.80
45491;DHT22;31237;45.586;13.782;2022-12-07T16:23:15;6.80;92.80
45491;DHT22;31237;45.586;13.782;2022-12-07T16:25:41;6.80;92.80
45491;DHT22;31237;45.586;13.782;2022-12-07T16:28:07;6.80;92.90
45491;DHT22;31237;45.586;13.782;2022-12-07T16:30:33;6.80;93.00
45491;DHT22;31237;45.586;13.782;2022-12-07T16:32:59;6.70;92.90
45491;DHT22;31237;45.586;13.782;2022-12-07T16:35:25;6.70;93.00
45491;DHT22;31237;45.586;13.782;2022-12-07T16:37:50;6.70;93.00
45491;DHT22;31237;45.586;13.782;2022-12-07T16:40:16;6.70;93.00
45491;DHT22;31237;45.586;13.782;2022-12-07T16:42:42;6.70;93.00
45491;DHT22;31237;45.586;13.782;2022-12-07T16:45:08;6.60;93.00
45491;DHT22;31237;45.586;13.782;2022-12-07T16:47:37;6.70;93.10
45491;DHT22;31237;45.586;13.782;2022-12-07T16:50:03;6.60;93.10
45491;DHT22;31237;45.586;13.782;2022-12-07T16:52:29;6.60;93.10
45491;DHT22;31237;45.586;13.782;2022-12-07T16:54:55;6.60;93.10
45491;DHT22;31237;45.586;13.782;2022-12-07T16:57:20;6.60;93.20
45491;DHT22;31237;45.586;13.782;2022-12-07T16:59:46;6.60;93.20
45491;DHT22;31237;45.586;13.782;2022-12-07T17:02:12;6.60;93.20
45491;DHT22;31237;45.586;13.782;2022-12-07T17:04:38;6.60;93.20
45491;DHT22;31237;45.586;13.782;2022-12-07T17:07:05;6.60;93.20
45491;DHT22;31237;45.586;13.782;2022-12-07T17:09:31;6.70;93.20
45491;DHT22;31237;45.586;13.782;2022-12-07T17:11:57;6.60;93.20
45491;DHT22;31237;45.586;13.782;2022-12-07T17:14:23;6.60;93.20
45491;DHT22;31237;45.586;13.782;2022-12-07T17:17:07;6.60;93.20
45491;DHT22;31237;45.586;13.782;2022-12-07T17:19:33;6.60;93.20
45491;DHT22;31237;45.586;13.782;2022-12-07T17:21:58;6.60;93.20
45491;DHT22;31237;45.586;13.782;2022-12-07T17:24:24;6.60;93.20
45491;DHT22;31237;45.586;13.782;2022-12-07T17:26:52;6.60;93.20
45491;DHT22;31237;45.586;13.782;2022-12-07T17:29:18;6.50;93.20
45491;DHT22;31237;45.586;13.782;2022-12-07T17:31:46;6.50;93.20
45491;DHT22;31237;45.586;13.782;2022-12-07T17:34:13;6.50;93.20
45491;DHT22;31237;45.586;13.782;2022-12-07T17:36:40;6.50;93.20
45491;DHT22;31237;45.586;13.782;2022-12-07T17:39:07;6.50;93.30
45491;DHT22;31237;45.586;13.782;2022-12-07T17:41:35;6.50;93.30
45491;DHT22;31237;45.586;13.782;2022-12-07T17:44:19;6.40;93.30
45491;DHT22;31237;45.586;13.782;2022-12-07T17:46:48;6.50;93.30